Terminal Aerodrome Forecast
Issued by NWS Wilmington, OH

Current Version | Previous Version | Graphics & Text | Print | Product List | Glossary On
Versions: 1 2 3 4 5 6 7 8 9 10 11 12 13 14 15 16 17 18 19 20 21 22 23 24 25
553
FTUS41 KILN 300217 AAB
TAFCMH
TAF AMD
KCMH 300217Z 3002/3024 02007KT P6SM OVC020
     FM300600 04008KT P6SM SCT020 BKN200
     FM301200 08009KT P6SM OVC040
     FM301800 11009G17KT 4SM -SHRA BR OVC025=

USA.gov is the U.S. government's official web portal to all federal, state and local government web resources and services.